Campos do Jordao, Brazil
Current Conditions -  °F | °C
As of 3:00 PM on Tuesday 27 Jan 2015 (Local Time) from SBGW Reporting Station
Thunderstorm Thunderstorm  
Wind Chill: 86°   Ceiling: 2500
Heat Index: 88°   Visibility: 6mi
Dew Point: 66°   Wind: 7mph
Humidity: 51%   Direction: 310°NW
Pressure: 29.97"   Gusts: NA
Location:  22.73°S, 45.59°W
Report Text: SBGW 271700Z 31006KT 9000 -TSRA BKN025 FEW030CB 30/19 Q1015
Loading
Personal Weather Stations






























Interactive Weather Map New forecast layout! Learn more

10-Day Weather Forecast

Advertisements
Track Severe Weather on mobile